Time;durP1;ratioP1;P1;durP2;ratioP2;P2;SDS_P1;SDS_P2;PMS_P1;PMS_P2;Temp;Humidity;BMP_temperature;BMP_pressure;BME280_temperature;BME280_humidity;BME280_pressure;Samples;Min_cycle;Max_cycle;Signal;HPM_P1;HPM_P2
2022/05/10 00:00:42;;;;;;;;;16.00;10.75;;;;;31.27;100.00;101101.06;5102431;27;51232;-57
2022/05/10 00:03:34;;;;;;;;;11.75;9.25;;;;;31.32;100.00;101104.28;5085481;27;51336;-56
2022/05/10 00:06:19;;;;;;;;;7.00;7.00;;;;;31.33;100.00;101097.75;5081394;27;52544;-56
2022/05/10 00:09:05;;;;;;;;;11.00;7.50;;;;;31.34;100.00;101114.13;5082430;27;51129;-57
2022/05/10 00:11:50;;;;;;;;;7.00;5.75;;;;;31.37;100.00;101113.00;5082154;27;51214;-55
2022/05/10 00:14:35;;;;;;;;;8.50;7.50;;;;;31.38;100.00;101106.47;5082079;27;51193;-55
2022/05/10 00:17:35;;;;;;;;;7.00;7.00;;;;;31.39;100.00;101110.97;5096748;27;51521;-54
2022/05/10 00:20:22;;;;;;;;;12.75;8.75;;;;;31.37;100.00;101105.63;5082416;27;51057;-56
2022/05/10 00:23:07;;;;;;;;;6.00;6.00;;;;;31.37;100.00;101107.50;5080951;27;51240;-57
2022/05/10 00:25:51;;;;;;;;;8.75;7.50;;;;;31.35;100.00;101102.13;5091936;27;51114;-57
2022/05/10 00:28:35;;;;;;;;;10.00;8.25;;;;;31.38;100.00;101095.47;5086096;27;51437;-55
2022/05/10 00:31:20;;;;;;;;;10.75;9.00;;;;;31.41;100.00;101083.38;5098462;27;51474;-55
2022/05/10 00:34:05;;;;;;;;;13.75;12.00;;;;;31.41;100.00;101084.22;5081684;27;51248;-57
2022/05/10 00:36:50;;;;;;;;;19.75;15.75;;;;;31.42;100.00;101071.38;5098792;27;51151;-57
2022/05/10 00:39:35;;;;;;;;;21.75;18.00;;;;;31.42;100.00;101074.97;5101634;27;51235;-56
2022/05/10 00:42:27;;;;;;;;;21.50;17.00;;;;;31.44;100.00;101059.22;5101714;27;51506;-55
2022/05/10 00:45:15;;;;;;;;;17.75;14.75;;;;;31.46;100.00;101053.56;5101660;27;51016;-54
2022/05/10 00:48:12;;;;;;;;;17.50;13.50;;;;;31.47;100.00;101058.94;5099722;27;51185;-55
2022/05/10 00:51:12;;;;;;;;;21.25;16.00;;;;;31.47;100.00;101060.81;5088135;27;51052;-57
2022/05/10 00:54:05;;;;;;;;;17.00;13.75;;;;;31.46;100.00;101059.06;5080298;27;51945;-55
2022/05/10 00:57:08;;;;;;;;;18.50;14.00;;;;;31.44;100.00;101047.31;5080003;27;51090;-55
2022/05/10 01:00:00;;;;;;;;;20.25;16.50;;;;;31.44;100.00;101041.81;5093058;27;51096;-55
2022/05/10 01:03:09;;;;;;;;;16.00;15.00;;;;;31.44;100.00;101039.06;5081298;27;51204;-56
2022/05/10 01:06:20;;;;;;;;;18.00;16.00;;;;;31.39;100.00;101028.47;5096133;27;51132;-55
2022/05/10 01:09:24;;;;;;;;;15.75;13.75;;;;;31.36;100.00;101032.38;5082827;27;51348;-57
2022/05/10 01:12:25;;;;;;;;;16.50;13.25;;;;;31.32;100.00;101021.78;5079379;27;51056;-56
2022/05/10 01:15:16;;;;;;;;;22.50;16.75;;;;;31.29;100.00;101017.44;5080680;27;51124;-55
2022/05/10 01:18:01;;;;;;;;;22.25;16.75;;;;;31.29;100.00;101019.31;5090237;27;51209;-55
2022/05/10 01:20:46;;;;;;;;;21.00;19.25;;;;;31.25;100.00;101012.34;5086595;27;51514;-56
2022/05/10 01:23:50;;;;;;;;;20.75;20.00;;;;;31.21;100.00;101015.34;5083649;27;51199;-53
2022/05/10 01:27:04;;;;;;;;;22.50;22.00;;;;;31.18;100.00;101006.50;5080571;27;51038;-55
2022/05/10 01:29:55;;;;;;;;;21.75;20.25;;;;;31.16;100.00;101011.25;5080389;27;51384;-52
2022/05/10 01:36:24;;;;;;;;;28.50;23.25;;;;;31.12;100.00;100987.78;5082895;27;51221;-54
2022/05/10 01:39:26;;;;;;;;;23.00;20.75;;;;;31.14;100.00;100978.44;5093517;27;51134;-55
2022/05/10 01:42:20;;;;;;;;;28.00;22.25;;;;;31.09;100.00;100968.81;5079791;27;50995;-57
2022/05/10 01:45:18;;;;;;;;;24.75;22.00;;;;;31.10;100.00;100965.91;5083380;27;51156;-55
2022/05/10 01:48:04;;;;;;;;;27.75;21.50;;;;;31.07;100.00;100969.81;5099363;27;51155;-56
2022/05/10 01:51:09;;;;;;;;;26.50;22.25;;;;;31.04;100.00;100970.06;5081252;27;51163;-55
2022/05/10 01:53:53;;;;;;;;;26.75;23.75;;;;;30.99;100.00;100952.25;5079347;27;51103;-55
2022/05/10 01:56:38;;;;;;;;;23.25;22.50;;;;;31.03;100.00;100950.97;5096424;27;51411;-55
2022/05/10 01:59:23;;;;;;;;;24.50;22.50;;;;;31.03;100.00;100946.34;5100334;27;51210;-56
2022/05/10 02:02:09;;;;;;;;;23.00;20.75;;;;;31.02;100.00;100941.00;5100517;27;51443;-56
2022/05/10 02:04:56;;;;;;;;;25.75;20.50;;;;;31.01;100.00;100937.34;5100616;27;51001;-54
2022/05/10 02:07:43;;;;;;;;;26.50;23.25;;;;;30.97;100.00;100924.91;5089270;27;51577;-56
2022/05/10 02:10:35;;;;;;;;;24.25;21.25;;;;;31.01;100.00;100920.00;5079852;28;51171;-54
2022/05/10 02:13:30;;;;;;;;;25.25;21.50;;;;;31.01;100.00;100920.88;5090488;27;51134;-55
2022/05/10 02:16:21;;;;;;;;;23.25;23.25;;;;;30.98;100.00;100915.66;5079293;27;51148;-57
2022/05/10 02:19:11;;;;;;;;;31.75;23.50;;;;;30.95;100.00;100904.94;5096963;27;51075;-55
2022/05/10 02:22:06;;;;;;;;;28.50;22.25;;;;;30.90;100.00;100893.50;5083812;27;51424;-56
2022/05/10 02:24:56;;;;;;;;;23.50;19.75;;;;;30.90;100.00;100891.59;5083120;27;51195;-56
2022/05/10 02:27:49;;;;;;;;;29.50;23.50;;;;;30.91;100.00;100878.72;5104520;27;51535;-55
2022/05/10 02:30:35;;;;;;;;;29.00;25.50;;;;;30.84;100.00;100861.94;5084034;27;51230;-57
2022/05/10 02:33:21;;;;;;;;;29.00;25.25;;;;;30.85;100.00;100860.91;5083339;27;51406;-57
2022/05/10 02:36:06;;;;;;;;;28.00;23.00;;;;;30.82;100.00;100844.72;5067870;27;51248;-56
2022/05/10 02:38:51;;;;;;;;;24.50;22.25;;;;;30.80;100.00;100848.59;5089439;27;51495;-54
2022/05/10 02:41:35;;;;;;;;;23.50;22.50;;;;;30.76;100.00;100846.13;5085153;27;51263;-54
2022/05/10 02:44:20;;;;;;;;;28.75;23.00;;;;;30.72;100.00;100828.16;5084560;27;51137;-54
2022/05/10 02:47:06;;;;;;;;;25.25;15.50;;;;;30.76;100.00;100823.25;5097872;27;51080;-53
2022/05/10 02:49:51;;;;;;;;;22.75;18.75;;;;;30.77;100.00;100822.25;5104099;27;51533;-56
2022/05/10 02:52:35;;;;;;;;;29.25;22.50;;;;;30.78;100.00;100814.91;5104392;27;51087;-57
2022/05/10 02:55:45;;;;;;;;;22.50;19.75;;;;;30.80;100.00;100810.13;5104415;27;51167;-53
2022/05/10 02:58:50;;;;;;;;;23.75;20.50;;;;;30.79;100.00;100813.91;5096797;27;51500;-56
2022/05/10 03:01:59;;;;;;;;;19.25;18.00;;;;;30.76;100.00;100813.16;5095569;27;51215;-56
2022/05/10 03:04:52;;;;;;;;;24.25;20.50;;;;;30.70;100.00;100805.44;5081471;27;51498;-58
2022/05/10 03:07:38;;;;;;;;;22.75;21.25;;;;;30.76;100.00;100807.69;5083338;27;51220;-57
2022/05/10 03:10:22;;;;;;;;;27.75;20.75;;;;;30.73;100.00;100799.69;5084001;27;51117;-57
2022/05/10 03:13:07;;;;;;;;;29.00;22.75;;;;;30.75;100.00;100803.19;5087404;27;51162;-56
2022/05/10 03:15:54;;;;;;;;;21.75;17.00;;;;;30.75;100.00;100810.53;5103595;27;51237;-56
2022/05/10 03:18:39;;;;;;;;;20.00;19.75;;;;;30.75;100.00;100808.69;5086121;27;51955;-57
2022/05/10 03:21:24;;;;;;;;;22.75;20.50;;;;;30.75;100.00;100813.28;5083224;27;51191;-54
2022/05/10 03:24:09;;;;;;;;;22.50;21.50;;;;;30.72;100.00;100810.84;5082956;27;51420;-56
2022/05/10 03:26:54;;;;;;;;;22.00;20.00;;;;;30.67;100.00;100805.75;5082628;27;51174;-57
2022/05/10 03:29:39;;;;;;;;;22.25;19.00;;;;;30.67;100.00;100803.00;5082642;27;51153;-56
2022/05/10 03:32:24;;;;;;;;;23.75;21.00;;;;;30.66;100.00;100804.00;5083049;27;51156;-57
2022/05/10 03:35:11;;;;;;;;;21.25;19.25;;;;;30.65;100.00;100801.38;5096817;27;51278;-55
2022/05/10 03:37:55;;;;;;;;;26.75;26.25;;;;;30.62;100.00;100807.16;5083056;27;51432;-54
2022/05/10 03:40:40;;;;;;;;;25.75;23.00;;;;;30.63;100.00;100814.38;5082398;27;51236;-54
2022/05/10 03:43:27;;;;;;;;;26.75;20.75;;;;;30.55;100.00;100795.84;5090162;27;51083;-55
2022/05/10 03:46:12;;;;;;;;;23.75;19.00;;;;;30.64;100.00;100816.09;5088537;27;51152;-55
2022/05/10 03:48:57;;;;;;;;;23.25;21.75;;;;;30.63;100.00;100817.13;5082099;27;51097;-55
2022/05/10 03:51:41;;;;;;;;;25.25;23.50;;;;;30.62;100.00;100823.63;5082735;27;51142;-58
2022/05/10 03:54:26;;;;;;;;;26.25;20.50;;;;;30.55;100.00;100821.41;5090157;27;51236;-54
2022/05/10 03:57:11;;;;;;;;;25.50;22.00;;;;;30.62;100.00;100827.22;5082572;27;50983;-55
2022/05/10 03:59:56;;;;;;;;;24.00;20.00;;;;;30.65;100.00;100832.47;5093983;27;50988;-56
2022/05/10 04:02:42;;;;;;;;;23.50;21.50;;;;;30.66;100.00;100838.81;5082302;27;51569;-59
2022/05/10 04:05:27;;;;;;;;;22.00;19.75;;;;;30.67;100.00;100841.44;5096918;27;51170;-54
2022/05/10 04:08:12;;;;;;;;;25.00;21.25;;;;;30.67;100.00;100843.31;5099586;27;51077;-59
2022/05/10 04:11:04;;;;;;;;;23.00;21.50;;;;;30.68;100.00;100851.44;5082779;27;51346;-53
2022/05/10 04:13:49;;;;;;;;;24.25;24.25;;;;;30.68;100.00;100856.91;5082180;27;51532;-56
2022/05/10 04:16:33;;;;;;;;;14.00;13.00;;;;;30.64;100.00;100846.31;5090432;27;51089;-54
2022/05/10 04:19:17;;;;;;;;;27.75;24.75;;;;;30.69;100.00;100852.28;5095951;27;51448;-57
2022/05/10 04:22:02;;;;;;;;;29.00;24.00;;;;;30.71;100.00;100864.88;5101194;27;51385;-55
2022/05/10 04:24:47;;;;;;;;;28.25;24.25;;;;;30.71;100.00;100877.75;5102419;27;51189;-57
2022/05/10 04:27:32;;;;;;;;;25.50;24.50;;;;;30.70;100.00;100882.34;5087892;27;51063;-54
2022/05/10 04:30:17;;;;;;;;;27.50;22.00;;;;;30.71;100.00;100884.09;5082286;27;51527;-56
2022/05/10 04:33:01;;;;;;;;;23.00;22.25;;;;;30.62;100.00;100884.91;5081531;27;51070;-55
2022/05/10 04:35:46;;;;;;;;;27.75;21.50;;;;;30.55;100.00;100880.94;5082427;27;51184;-55
2022/05/10 04:38:31;;;;;;;;;29.75;25.25;;;;;30.60;100.00;100896.03;5093926;27;51254;-55
2022/05/10 04:41:25;;;;;;;;;27.50;23.00;;;;;30.57;100.00;100896.28;5089124;27;51173;-56
2022/05/10 04:44:11;;;;;;;;;32.25;26.25;;;;;30.53;100.00;100891.19;5082109;27;51164;-57
2022/05/10 04:46:55;;;;;;;;;25.25;23.50;;;;;30.51;100.00;100891.31;5081190;27;51081;-54
2022/05/10 04:49:40;;;;;;;;;28.25;25.00;;;;;30.58;100.00;100905.41;5084953;27;51204;-57
2022/05/10 04:52:24;;;;;;;;;30.00;26.75;;;;;30.63;100.00;100916.84;5097994;27;51118;-54
2022/05/10 04:55:09;;;;;;;;;30.00;26.50;;;;;30.65;100.00;100931.31;5101926;27;51157;-54
2022/05/10 04:57:54;;;;;;;;;28.00;26.50;;;;;30.67;100.00;100937.56;5101841;27;51144;-56
2022/05/10 05:00:39;;;;;;;;;36.50;29.75;;;;;30.70;100.00;100942.78;5101683;27;51113;-54
2022/05/10 05:03:23;;;;;;;;;37.50;30.75;;;;;30.66;100.00;100940.44;5100988;27;51041;-54
2022/05/10 05:06:07;;;;;;;;;46.75;36.75;;;;;30.69;100.00;100948.41;5101662;27;51074;-57
2022/05/10 05:08:52;;;;;;;;;44.50;35.75;;;;;30.69;100.00;100960.25;5088075;27;51199;-57
2022/05/10 05:11:37;;;;;;;;;50.75;38.50;;;;;30.60;100.00;100953.69;5080733;27;51228;-57
2022/05/10 05:14:21;;;;;;;;;40.75;33.50;;;;;30.64;100.00;100975.38;5081181;27;51041;-56
2022/05/10 05:17:06;;;;;;;;;42.00;33.50;;;;;30.60;100.00;100983.00;5080601;27;51247;-57
2022/05/10 05:19:50;;;;;;;;;33.25;29.75;;;;;30.57;100.00;100986.03;5086882;27;51156;-56
2022/05/10 05:22:34;;;;;;;;;33.25;26.50;;;;;30.53;100.00;101001.88;5080549;27;51278;-56
2022/05/10 05:25:19;;;;;;;;;36.00;30.00;;;;;30.49;100.00;101000.38;5081065;27;51073;-57
2022/05/10 05:28:04;;;;;;;;;43.75;31.75;;;;;30.47;100.00;101016.09;5095201;27;51094;-58
2022/05/10 05:30:50;;;;;;;;;44.75;36.00;;;;;30.40;100.00;101007.50;5101262;27;51080;-57
2022/05/10 05:33:34;;;;;;;;;37.75;32.00;;;;;30.40;100.00;101013.00;5068630;27;51115;-54
2022/05/10 05:36:19;;;;;;;;;42.00;34.00;;;;;30.38;100.00;101020.47;5101521;27;51538;-57
2022/05/10 05:39:03;;;;;;;;;49.75;39.00;;;;;30.39;100.00;101016.75;5100187;27;51116;-57
2022/05/10 05:41:48;;;;;;;;;45.25;36.25;;;;;30.41;100.00;101020.22;5100937;27;51142;-52
2022/05/10 05:44:32;;;;;;;;;51.50;40.75;;;;;30.43;100.00;101014.59;5100063;27;51142;-55
2022/05/10 05:47:17;;;;;;;;;48.75;36.75;;;;;30.43;100.00;101018.25;5100087;27;51122;-53
2022/05/10 05:50:02;;;;;;;;;44.50;36.00;;;;;30.39;100.00;101027.72;5101277;27;51186;-57
2022/05/10 05:52:48;;;;;;;;;34.00;31.00;;;;;30.33;100.00;101011.78;5100317;27;51169;-52
2022/05/10 05:55:32;;;;;;;;;37.00;30.00;;;;;30.26;100.00;101010.53;5100484;27;51152;-54
2022/05/10 05:58:17;;;;;;;;;41.00;33.25;;;;;30.20;100.00;101002.81;5100849;27;51144;-54
2022/05/10 06:01:02;;;;;;;;;34.25;27.25;;;;;30.10;100.00;101017.28;5100169;27;51084;-56
2022/05/10 06:03:51;;;;;;;;;29.50;24.50;;;;;30.03;100.00;101010.56;5101154;27;51454;-55
2022/05/10 06:06:35;;;;;;;;;26.75;22.25;;;;;29.99;100.00;101029.16;5100504;27;51205;-55
2022/05/10 06:09:22;;;;;;;;;31.00;26.75;;;;;29.87;100.00;101029.22;5100600;27;51120;-54
2022/05/10 06:12:09;;;;;;;;;32.25;30.25;;;;;29.71;100.00;101030.50;5100341;27;51095;-56
2022/05/10 06:14:53;;;;;;;;;31.00;27.50;;;;;29.65;100.00;101029.09;5100533;27;51108;-55
2022/05/10 06:17:40;;;;;;;;;29.75;26.00;;;;;29.55;100.00;101017.13;5100050;27;51399;-58
2022/05/10 06:20:25;;;;;;;;;32.00;28.75;;;;;29.55;100.00;101008.03;5093679;27;51120;-58
2022/05/10 06:23:09;;;;;;;;;24.00;22.00;;;;;29.57;100.00;101022.47;5097200;27;51128;-57
2022/05/10 06:25:54;;;;;;;;;24.25;21.25;;;;;29.52;100.00;101036.56;5100292;27;51136;-57
2022/05/10 06:28:38;;;;;;;;;25.75;23.25;;;;;29.53;100.00;101052.88;5083352;27;51192;-58
2022/05/10 06:31:23;;;;;;;;;28.25;23.25;;;;;29.55;100.00;101057.38;5088993;27;51221;-59
2022/05/10 06:34:07;;;;;;;;;31.25;28.00;;;;;29.58;100.00;101068.97;5087981;27;51163;-58
2022/05/10 06:36:52;;;;;;;;;30.00;22.00;;;;;29.47;100.00;101080.78;5100282;27;51021;-59
2022/05/10 06:39:36;;;;;;;;;29.25;23.75;;;;;29.43;100.00;101112.16;5085181;27;51162;-58
2022/05/10 06:42:22;;;;;;;;;26.25;21.00;;;;;29.33;100.00;101111.13;5095317;27;51359;-59
2022/05/10 06:45:10;;;;;;;;;27.25;21.00;;;;;29.33;100.00;101122.09;5079759;27;51180;-58
2022/05/10 06:47:55;;;;;;;;;22.25;20.50;;;;;29.28;100.00;101135.25;5079746;28;51385;-58
2022/05/10 06:50:40;;;;;;;;;24.75;21.25;;;;;29.21;100.00;101145.81;5087826;27;51164;-59
2022/05/10 06:53:25;;;;;;;;;32.25;25.75;;;;;29.19;100.00;101139.56;5079840;27;51086;-58
2022/05/10 06:56:10;;;;;;;;;34.75;28.50;;;;;29.21;100.00;101145.81;5079071;27;51495;-59
2022/05/10 06:58:54;;;;;;;;;31.25;27.00;;;;;29.21;100.00;101138.44;5079275;28;51619;-59
2022/05/10 07:01:39;;;;;;;;;31.00;26.00;;;;;29.21;100.00;101143.94;5079466;27;51152;-58
2022/05/10 07:04:23;;;;;;;;;31.25;25.25;;;;;29.17;100.00;101126.00;5098120;27;51082;-58
2022/05/10 07:07:08;;;;;;;;;37.25;29.75;;;;;29.15;100.00;101117.00;5103153;27;51433;-59
2022/05/10 07:09:53;;;;;;;;;35.75;29.25;;;;;29.11;100.00;101129.19;5103648;27;51184;-59
2022/05/10 07:12:40;;;;;;;;;36.25;30.00;;;;;29.18;100.00;101146.03;5103734;27;51150;-59
2022/05/10 07:15:24;;;;;;;;;36.25;29.50;;;;;29.10;100.00;101135.69;5102920;27;51178;-59
2022/05/10 07:18:09;;;;;;;;;37.25;30.75;;;;;29.31;100.00;101148.75;5102336;27;51127;-59
2022/05/10 07:20:53;;;;;;;;;27.00;24.75;;;;;29.32;100.00;101137.66;5102034;27;51095;-58
2022/05/10 07:23:38;;;;;;;;;29.25;28.00;;;;;29.34;100.00;101148.50;5101982;27;51182;-58
2022/05/10 07:26:23;;;;;;;;;30.25;25.25;;;;;29.34;100.00;101160.38;5087313;27;51382;-58
2022/05/10 07:29:07;;;;;;;;;29.00;26.00;;;;;29.34;100.00;101173.19;5081465;27;51069;-58
2022/05/10 07:31:53;;;;;;;;;30.50;25.00;;;;;29.28;100.00;101184.59;5082491;27;52014;-59
2022/05/10 07:34:37;;;;;;;;;28.50;26.25;;;;;29.27;100.00;101191.06;5082553;27;51158;-59
2022/05/10 07:37:22;;;;;;;;;25.75;24.50;;;;;29.24;100.00;101197.66;5099621;27;51532;-59
2022/05/10 07:40:08;;;;;;;;;33.75;26.50;;;;;29.25;100.00;101196.66;5102633;27;51215;-58
2022/05/10 07:42:52;;;;;;;;;32.00;23.50;;;;;29.23;100.00;101195.91;5093186;27;51144;-59
2022/05/10 07:45:36;;;;;;;;;35.75;29.00;;;;;29.22;100.00;101197.75;5098630;27;51331;-60
2022/05/10 07:48:21;;;;;;;;;28.50;24.50;;;;;29.22;100.00;101203.22;5102990;27;51161;-58
2022/05/10 07:51:06;;;;;;;;;33.50;25.25;;;;;29.16;100.00;101200.06;5102596;27;51387;-58
2022/05/10 07:53:51;;;;;;;;;30.75;25.50;;;;;29.20;100.00;101216.19;5103142;27;51235;-59
2022/05/10 07:56:37;;;;;;;;;31.25;24.50;;;;;29.18;100.00;101229.13;5102731;27;51535;-58
2022/05/10 07:59:21;;;;;;;;;36.25;27.50;;;;;29.24;100.00;101266.16;5083465;27;51158;-59
2022/05/10 08:02:07;;;;;;;;;29.50;28.75;;;;;29.29;100.00;101295.97;5082287;27;51160;-59
2022/05/10 08:04:51;;;;;;;;;30.00;26.25;;;;;29.37;100.00;101302.63;5081800;27;51176;-59
2022/05/10 08:07:36;;;;;;;;;37.75;31.50;;;;;29.43;100.00;101295.81;5082394;27;51105;-59
2022/05/10 08:10:20;;;;;;;;;37.75;31.25;;;;;29.57;100.00;101291.19;5100506;27;51076;-58
2022/05/10 08:13:12;;;;;;;;;42.00;33.00;;;;;29.50;100.00;101286.16;5104742;27;51066;-58
2022/05/10 08:15:57;;;;;;;;;32.00;29.25;;;;;29.47;100.00;101274.56;5102187;27;51214;-59
2022/05/10 08:18:45;;;;;;;;;42.25;32.50;;;;;29.47;100.00;101261.72;5101940;27;51202;-58
2022/05/10 08:21:37;;;;;;;;;36.00;30.50;;;;;29.48;100.00;101268.06;5102016;27;51524;-59
2022/05/10 08:24:23;;;;;;;;;38.75;29.25;;;;;29.51;100.00;101282.44;5080519;27;51092;-59
2022/05/10 08:27:35;;;;;;;;;31.50;28.75;;;;;29.57;100.00;101293.91;5080898;27;51610;-57
2022/05/10 08:30:20;;;;;;;;;31.50;27.00;;;;;29.69;100.00;101318.53;5100772;27;51518;-58
2022/05/10 08:33:04;;;;;;;;;30.25;26.00;;;;;29.73;100.00;101324.69;5077299;27;51230;-58
2022/05/10 08:35:50;;;;;;;;;31.00;24.50;;;;;29.72;100.00;101336.66;5094233;27;51341;-59
2022/05/10 08:38:35;;;;;;;;;32.75;30.00;;;;;29.69;100.00;101337.72;5090217;27;51623;-58
2022/05/10 08:41:22;;;;;;;;;36.50;28.00;;;;;29.67;100.00;101330.63;5088590;27;53310;-58
2022/05/10 08:44:09;;;;;;;;;40.00;30.50;;;;;29.67;100.00;101320.53;5081190;27;51258;-58
2022/05/10 08:46:58;;;;;;;;;38.75;31.50;;;;;29.62;100.00;101313.66;5084181;27;51324;-58
2022/05/10 08:49:51;;;;;;;;;50.50;41.25;;;;;29.73;100.00;101321.94;5080457;27;51543;-58
2022/05/10 08:52:41;;;;;;;;;54.25;41.75;;;;;29.78;100.00;101310.63;5090378;27;51192;-57
2022/05/10 08:55:31;;;;;;;;;44.25;33.25;;;;;29.84;100.00;101319.22;5088779;27;51121;-57
2022/05/10 08:58:28;;;;;;;;;40.25;32.75;;;;;29.85;100.00;101322.88;5086772;27;51079;-58
2022/05/10 09:01:19;;;;;;;;;37.50;31.00;;;;;29.88;100.00;101319.91;5094511;27;52378;-58
2022/05/10 09:04:23;;;;;;;;;38.00;29.75;;;;;29.95;100.00;101309.34;5087078;27;51848;-58
2022/05/10 09:07:16;;;;;;;;;41.25;33.50;;;;;29.97;100.00;101311.00;5094587;27;51111;-59
2022/05/10 09:10:08;;;;;;;;;39.50;33.50;;;;;30.00;100.00;101301.63;5085921;27;51066;-58
2022/05/10 09:13:03;;;;;;;;;47.00;35.25;;;;;30.09;100.00;101297.31;5099770;27;51139;-58
2022/05/10 09:16:00;;;;;;;;;44.00;33.50;;;;;30.13;100.00;101290.56;5077460;27;51608;-59
2022/05/10 09:18:52;;;;;;;;;45.00;34.75;;;;;30.14;100.00;101290.47;5084746;27;51262;-58
2022/05/10 09:21:49;;;;;;;;;50.00;39.00;;;;;30.09;100.00;101276.22;5086418;27;51042;-59
2022/05/10 09:24:48;;;;;;;;;48.25;36.25;;;;;30.02;100.00;101269.47;5083851;27;51190;-58
2022/05/10 09:27:34;;;;;;;;;46.50;35.75;;;;;30.18;100.00;101285.59;5079996;27;51173;-57
2022/05/10 09:30:28;;;;;;;;;45.50;36.75;;;;;30.24;100.00;101265.03;5087787;27;51160;-59
2022/05/10 09:36:31;;;;;;;;;41.75;32.00;;;;;30.51;100.00;101266.56;5084770;27;51105;-58
2022/05/10 09:39:33;;;;;;;;;46.25;35.25;;;;;30.64;100.00;101261.88;5082936;27;51536;-61
2022/05/10 09:42:36;;;;;;;;;44.25;32.25;;;;;30.74;100.00;101262.03;5099046;27;51158;-58
2022/05/10 09:45:26;;;;;;;;;36.00;31.00;;;;;30.85;100.00;101253.75;5090937;27;51154;-58
2022/05/10 09:48:15;;;;;;;;;37.25;29.75;;;;;30.91;100.00;101255.13;5080222;27;51298;-57
2022/05/10 09:51:24;;;;;;;;;40.00;31.50;;;;;31.02;100.00;101251.50;5083253;27;51509;-58
2022/05/10 09:54:37;;;;;;;;;42.00;33.25;;;;;31.16;100.00;101259.53;5092983;27;51071;-58
2022/05/10 09:57:29;;;;;;;;;38.75;31.75;;;;;31.29;100.00;101262.09;5086308;27;51133;-58
2022/05/10 10:00:15;;;;;;;;;44.50;33.50;;;;;31.41;100.00;101273.09;5088864;27;51220;-58
2022/05/10 10:03:00;;;;;;;;;37.00;30.25;;;;;31.47;100.00;101272.56;5097809;27;51101;-58
2022/05/10 10:05:45;;;;;;;;;38.25;30.75;;;;;31.56;100.00;101280.03;5086404;27;51181;-59
2022/05/10 10:08:42;;;;;;;;;36.25;31.25;;;;;31.64;100.00;101282.13;5075255;27;51131;-58
2022/05/10 10:11:39;;;;;;;;;37.75;32.00;;;;;31.75;100.00;101286.78;5086634;27;51198;-58
2022/05/10 10:14:38;;;;;;;;;38.25;30.75;;;;;31.91;100.00;101289.94;5088052;27;51123;-57
2022/05/10 10:17:28;;;;;;;;;49.25;36.50;;;;;31.96;100.00;101293.16;5078972;27;51109;-59
2022/05/10 10:20:35;;;;;;;;;47.50;35.25;;;;;32.09;100.00;101290.22;5098926;27;51531;-58
2022/05/10 10:23:25;;;;;;;;;40.25;33.00;;;;;32.26;100.00;101285.16;5079983;27;51047;-58
2022/05/10 10:26:39;;;;;;;;;44.75;34.75;;;;;32.44;100.00;101296.44;5095995;27;51129;-59
2022/05/10 10:29:29;;;;;;;;;43.50;37.25;;;;;32.65;100.00;101285.38;5083484;27;51259;-58
2022/05/10 10:32:20;;;;;;;;;52.25;41.75;;;;;32.85;100.00;101288.28;5087246;27;51463;-59
2022/05/10 10:35:15;;;;;;;;;45.00;35.25;;;;;33.01;100.00;101273.97;5080146;27;51080;-59
2022/05/10 10:38:32;;;;;;;;;44.50;35.50;;;;;33.16;100.00;101269.81;5092822;27;51610;-58
2022/05/10 10:41:36;;;;;;;;;45.50;35.50;;;;;33.28;100.00;101270.56;5099667;27;51522;-59
2022/05/10 10:44:28;;;;;;;;;44.50;36.50;;;;;33.45;100.00;101266.25;5084488;27;51134;-58
2022/05/10 10:47:41;;;;;;;;;48.25;40.00;;;;;33.59;100.00;101258.59;5083781;27;51243;-58
2022/05/10 10:50:28;;;;;;;;;48.50;39.25;;;;;33.75;100.00;101250.63;5089712;27;51079;-58
2022/05/10 10:53:13;;;;;;;;;46.50;37.75;;;;;33.88;100.00;101249.47;5094208;27;51077;-59
2022/05/10 10:56:19;;;;;;;;;45.25;36.25;;;;;34.02;100.00;101249.03;5086259;27;51167;-59
2022/05/10 10:59:24;;;;;;;;;41.75;34.25;;;;;34.11;100.00;101239.84;5086792;27;51198;-58
2022/05/10 11:02:42;;;;;;;;;42.25;34.75;;;;;34.26;100.00;101240.25;5082833;27;51191;-60
2022/05/10 11:05:56;;;;;;;;;41.00;32.00;;;;;34.36;100.00;101228.31;5082433;27;51251;-59
2022/05/10 11:08:47;;;;;;;;;35.50;29.25;;;;;34.42;100.00;101225.84;5084043;27;51165;-58
2022/05/10 11:11:40;;;;;;;;;36.25;31.00;;;;;34.59;100.00;101235.25;5085827;27;51527;-58
2022/05/10 11:14:31;;;;;;;;;33.50;29.00;;;;;34.70;100.00;101213.97;5084645;27;51187;-58
2022/05/10 11:17:15;;;;;;;;;41.00;31.25;;;;;34.81;100.00;101210.13;5086209;27;51159;-59
2022/05/10 11:20:23;;;;;;;;;33.25;30.25;;;;;34.95;100.00;101198.56;5087687;27;51104;-58
2022/05/10 11:23:08;;;;;;;;;45.50;35.75;;;;;35.11;100.00;101206.19;5090791;27;51150;-59
2022/05/10 11:26:26;;;;;;;;;39.00;31.50;;;;;35.29;100.00;101195.16;5088980;27;51440;-59
2022/05/10 11:29:30;;;;;;;;;32.00;30.00;;;;;35.41;100.00;101183.84;5086368;27;51208;-58
2022/05/10 11:32:49;;;;;;;;;30.50;26.00;;;;;35.59;100.00;101184.75;5084083;27;51310;-59
2022/05/10 11:35:58;;;;;;;;;36.25;27.50;;;;;35.67;100.00;101184.81;5029473;27;51166;-58
2022/05/10 11:39:13;;;;;;;;;31.00;28.00;;;;;35.81;100.00;101185.25;5084416;27;51990;-58
2022/05/10 11:42:02;;;;;;;;;30.00;26.50;;;;;35.94;100.00;101180.22;5087182;27;51226;-59
2022/05/10 11:44:56;;;;;;;;;38.25;30.75;;;;;36.08;100.00;101173.19;5089818;27;51655;-58
2022/05/10 11:48:13;;;;;;;;;33.75;29.25;;;;;36.16;100.00;101179.81;5087580;27;51260;-59
2022/05/10 11:51:39;;;;;;;;;24.25;20.00;;;;;36.11;100.00;101178.44;5083430;27;51168;-58
2022/05/10 11:54:49;;;;;;;;;36.00;29.50;;;;;36.05;100.00;101175.44;5087843;27;51562;-59
2022/05/10 11:57:34;;;;;;;;;31.25;26.50;;;;;35.98;100.00;101164.13;5089795;27;51340;-58
2022/05/10 12:00:31;;;;;;;;;33.75;28.25;;;;;36.00;100.00;101162.09;5087157;27;51522;-58
2022/05/10 12:03:43;;;;;;;;;27.00;25.00;;;;;35.94;100.00;101166.38;5086123;27;51172;-58
2022/05/10 12:06:28;;;;;;;;;28.75;22.25;;;;;35.88;100.00;101147.59;5090796;27;51335;-59
2022/05/10 12:09:15;;;;;;;;;28.00;26.75;;;;;35.94;100.00;101148.88;5089671;27;51482;-59
2022/05/10 12:11:59;;;;;;;;;29.50;26.00;;;;;35.97;100.00;101143.00;5087798;27;51633;-59
2022/05/10 12:21:19;;;;;;;;;30.75;27.25;;;;;35.82;100.00;101123.34;5075311;27;51284;-58
2022/05/10 12:24:12;;;;;;;;;33.00;24.75;;;;;35.87;100.00;101125.63;5082070;27;51610;-58
2022/05/10 12:27:17;;;;;;;;;37.00;23.25;;;;;35.85;100.00;101123.00;5090841;27;51147;-58
2022/05/10 12:30:06;;;;;;;;;28.50;25.00;;;;;35.82;100.00;101103.94;5086008;27;51159;-59
2022/05/10 12:32:51;;;;;;;;;26.75;23.75;;;;;35.80;100.00;101098.59;5084777;27;51416;-59
2022/05/10 12:35:44;;;;;;;;;27.75;22.75;;;;;35.80;100.00;101097.72;5089701;27;51035;-59
2022/05/10 12:38:48;;;;;;;;;25.25;24.25;;;;;35.81;100.00;101091.16;5086260;27;51206;-59
2022/05/10 12:41:54;;;;;;;;;32.50;25.25;;;;;35.78;100.00;101094.22;5087557;27;51265;-59
2022/05/10 12:44:55;;;;;;;;;26.00;24.00;;;;;35.73;100.00;101088.31;5088852;27;51999;-58
2022/05/10 12:48:23;;;;;;;;;23.50;21.75;;;;;35.61;100.00;101084.97;5089138;27;51342;-58
2022/05/10 12:51:47;;;;;;;;;25.25;19.75;;;;;35.64;100.00;101085.50;5084130;27;51089;-59
2022/05/10 12:54:45;;;;;;;;;26.25;23.50;;;;;35.74;100.00;101088.16;5089372;27;51190;-59
2022/05/10 12:57:54;;;;;;;;;24.25;21.50;;;;;35.71;100.00;101074.66;5086499;27;51120;-58
2022/05/10 13:00:44;;;;;;;;;21.25;18.25;;;;;35.60;100.00;101072.16;5079855;27;51046;-59